sensor_id;sensor_type;location;lat;lon;timestamp;pressure;altitude;pressure_sealevel;temperature;humidity
44131;BME280;29792;48.726;9.248;2022-12-29T00:02:00;96509.56;;;7.49;94.79
44131;BME280;29792;48.726;9.248;2022-12-29T00:04:27;96516.06;;;7.53;95.54
44131;BME280;29792;48.726;9.248;2022-12-29T00:06:52;96507.25;;;7.57;94.85
44131;BME280;29792;48.726;9.248;2022-12-29T00:09:18;96512.22;;;7.58;94.87
44131;BME280;29792;48.726;9.248;2022-12-29T00:11:43;96512.94;;;7.60;95.07
44131;BME280;29792;48.726;9.248;2022-12-29T00:14:09;96509.47;;;7.61;95.14
44131;BME280;29792;48.726;9.248;2022-12-29T00:16:53;96508.28;;;7.65;95.35
44131;BME280;29792;48.726;9.248;2022-12-29T00:19:19;96502.97;;;7.69;94.81
44131;BME280;29792;48.726;9.248;2022-12-29T00:22:03;96499.00;;;7.76;95.14
44131;BME280;29792;48.726;9.248;2022-12-29T00:24:46;96482.69;;;7.78;94.78
44131;BME280;29792;48.726;9.248;2022-12-29T00:27:31;96481.72;;;7.79;94.41
44131;BME280;29792;48.726;9.248;2022-12-29T00:30:20;96487.63;;;7.80;94.79
44131;BME280;29792;48.726;9.248;2022-12-29T00:33:12;96474.88;;;7.80;94.69
44131;BME280;29792;48.726;9.248;2022-12-29T00:36:00;96476.50;;;7.81;94.51
44131;BME280;29792;48.726;9.248;2022-12-29T00:38:27;96477.31;;;7.81;94.80
44131;BME280;29792;48.726;9.248;2022-12-29T00:41:12;96472.91;;;7.83;94.82
44131;BME280;29792;48.726;9.248;2022-12-29T00:43:56;96471.63;;;7.89;94.51
44131;BME280;29792;48.726;9.248;2022-12-29T00:46:31;96469.66;;;7.92;94.47
44131;BME280;29792;48.726;9.248;2022-12-29T00:48:57;96476.22;;;7.95;94.35
44131;BME280;29792;48.726;9.248;2022-12-29T00:51:41;96464.28;;;7.95;94.01
44131;BME280;29792;48.726;9.248;2022-12-29T00:54:06;96480.19;;;7.99;93.76
44131;BME280;29792;48.726;9.248;2022-12-29T00:56:31;96467.44;;;7.99;93.84
44131;BME280;29792;48.726;9.248;2022-12-29T00:59:08;96465.47;;;8.02;93.82
44131;BME280;29792;48.726;9.248;2022-12-29T01:01:34;96472.63;;;8.09;93.92
44131;BME280;29792;48.726;9.248;2022-12-29T01:04:00;96473.06;;;8.14;93.53
44131;BME280;29792;48.726;9.248;2022-12-29T01:06:25;96470.16;;;8.18;93.49
44131;BME280;29792;48.726;9.248;2022-12-29T01:08:51;96475.69;;;8.23;92.97
44131;BME280;29792;48.726;9.248;2022-12-29T01:11:40;96471.97;;;8.27;93.06
44131;BME280;29792;48.726;9.248;2022-12-29T01:14:06;96478.47;;;8.31;92.38
44131;BME280;29792;48.726;9.248;2022-12-29T01:16:31;96468.84;;;8.35;92.07
44131;BME280;29792;48.726;9.248;2022-12-29T01:18:56;96474.50;;;8.38;91.83
44131;BME280;29792;48.726;9.248;2022-12-29T01:21:22;96485.41;;;8.40;91.78
44131;BME280;29792;48.726;9.248;2022-12-29T01:23:47;96483.56;;;8.43;91.65
44131;BME280;29792;48.726;9.248;2022-12-29T01:26:15;96481.53;;;8.46;91.73
44131;BME280;29792;48.726;9.248;2022-12-29T01:28:40;96485.81;;;8.57;91.69
44131;BME280;29792;48.726;9.248;2022-12-29T01:31:07;96486.00;;;8.65;91.52
44131;BME280;29792;48.726;9.248;2022-12-29T01:33:33;96489.78;;;8.70;90.85
44131;BME280;29792;48.726;9.248;2022-12-29T01:36:02;96485.38;;;8.72;90.49
44131;BME280;29792;48.726;9.248;2022-12-29T01:38:28;96486.31;;;8.71;90.37
44131;BME280;29792;48.726;9.248;2022-12-29T01:40:53;96491.53;;;8.70;90.26
44131;BME280;29792;48.726;9.248;2022-12-29T01:43:18;96488.97;;;8.70;90.07
44131;BME280;29792;48.726;9.248;2022-12-29T01:45:48;96484.78;;;8.69;89.96
44131;BME280;29792;48.726;9.248;2022-12-29T01:48:16;96490.59;;;8.71;89.84
44131;BME280;29792;48.726;9.248;2022-12-29T01:50:50;96485.59;;;8.69;89.58
44131;BME280;29792;48.726;9.248;2022-12-29T01:53:24;96486.41;;;8.70;89.83
44131;BME280;29792;48.726;9.248;2022-12-29T01:55:54;96479.56;;;8.70;89.74
44131;BME280;29792;48.726;9.248;2022-12-29T01:58:22;96488.84;;;8.71;89.57
44131;BME280;29792;48.726;9.248;2022-12-29T02:00:49;96478.53;;;8.73;90.04
44131;BME280;29792;48.726;9.248;2022-12-29T02:03:17;96482.81;;;8.72;89.66
44131;BME280;29792;48.726;9.248;2022-12-29T02:05:58;96486.88;;;8.75;89.72
44131;BME280;29792;48.726;9.248;2022-12-29T02:08:28;96477.09;;;8.80;89.49
44131;BME280;29792;48.726;9.248;2022-12-29T02:10:55;96476.97;;;8.82;89.37
44131;BME280;29792;48.726;9.248;2022-12-29T02:13:24;96479.41;;;8.83;89.50
44131;BME280;29792;48.726;9.248;2022-12-29T02:16:05;96465.19;;;8.90;89.21
44131;BME280;29792;48.726;9.248;2022-12-29T02:24:12;96465.50;;;9.27;87.59
44131;BME280;29792;48.726;9.248;2022-12-29T02:31:57;96447.88;;;9.64;85.72
44131;BME280;29792;48.726;9.248;2022-12-29T02:34:47;96450.19;;;9.77;84.55
44131;BME280;29792;48.726;9.248;2022-12-29T02:37:26;96447.34;;;9.89;83.94
44131;BME280;29792;48.726;9.248;2022-12-29T02:40:13;96458.44;;;10.00;82.80
44131;BME280;29792;48.726;9.248;2022-12-29T02:43:01;96448.34;;;10.08;82.30
44131;BME280;29792;48.726;9.248;2022-12-29T02:45:32;96448.38;;;10.17;81.47
44131;BME280;29792;48.726;9.248;2022-12-29T02:48:09;96443.41;;;10.25;81.14
44131;BME280;29792;48.726;9.248;2022-12-29T02:50:42;96440.28;;;10.31;80.84
44131;BME280;29792;48.726;9.248;2022-12-29T02:53:11;96436.53;;;10.36;80.24
44131;BME280;29792;48.726;9.248;2022-12-29T02:55:38;96433.53;;;10.40;79.85
44131;BME280;29792;48.726;9.248;2022-12-29T02:58:22;96432.47;;;10.43;79.73
44131;BME280;29792;48.726;9.248;2022-12-29T03:09:31;96452.81;;;10.54;78.34
44131;BME280;29792;48.726;9.248;2022-12-29T03:15:02;96443.91;;;10.58;77.78
44131;BME280;29792;48.726;9.248;2022-12-29T03:17:56;96443.66;;;10.61;76.92
44131;BME280;29792;48.726;9.248;2022-12-29T03:23:07;96437.97;;;10.57;76.44
44131;BME280;29792;48.726;9.248;2022-12-29T03:25:35;96440.81;;;10.54;76.85
44131;BME280;29792;48.726;9.248;2022-12-29T03:28:07;96434.47;;;10.49;77.23
44131;BME280;29792;48.726;9.248;2022-12-29T03:30:34;96436.22;;;10.48;77.54
44131;BME280;29792;48.726;9.248;2022-12-29T03:33:03;96424.53;;;10.46;77.37
44131;BME280;29792;48.726;9.248;2022-12-29T03:35:31;96418.44;;;10.47;77.27
44131;BME280;29792;48.726;9.248;2022-12-29T03:38:12;96423.03;;;10.43;77.48
44131;BME280;29792;48.726;9.248;2022-12-29T03:40:41;96421.44;;;10.42;77.41
44131;BME280;29792;48.726;9.248;2022-12-29T03:43:07;96417.63;;;10.46;77.67
44131;BME280;29792;48.726;9.248;2022-12-29T03:45:33;96420.47;;;10.53;77.19
44131;BME280;29792;48.726;9.248;2022-12-29T03:47:59;96419.25;;;10.57;77.45
44131;BME280;29792;48.726;9.248;2022-12-29T03:50:24;96415.63;;;10.59;76.86
44131;BME280;29792;48.726;9.248;2022-12-29T03:52:49;96405.06;;;10.62;76.90
44131;BME280;29792;48.726;9.248;2022-12-29T03:55:15;96403.19;;;10.64;77.03
44131;BME280;29792;48.726;9.248;2022-12-29T03:57:40;96411.41;;;10.68;77.33
44131;BME280;29792;48.726;9.248;2022-12-29T04:00:08;96402.63;;;10.70;76.76
44131;BME280;29792;48.726;9.248;2022-12-29T04:02:33;96405.19;;;10.70;77.41
44131;BME280;29792;48.726;9.248;2022-12-29T04:04:58;96404.53;;;10.68;77.26
44131;BME280;29792;48.726;9.248;2022-12-29T04:07:23;96401.03;;;10.69;77.23
44131;BME280;29792;48.726;9.248;2022-12-29T04:09:49;96419.63;;;10.71;76.75
44131;BME280;29792;48.726;9.248;2022-12-29T04:12:14;96413.97;;;10.68;77.16
44131;BME280;29792;48.726;9.248;2022-12-29T04:14:40;96409.78;;;10.67;77.58
44131;BME280;29792;48.726;9.248;2022-12-29T04:17:05;96404.81;;;10.65;77.36
44131;BME280;29792;48.726;9.248;2022-12-29T04:19:30;96408.31;;;10.64;77.78
44131;BME280;29792;48.726;9.248;2022-12-29T04:21:56;96400.75;;;10.63;78.12
44131;BME280;29792;48.726;9.248;2022-12-29T04:24:21;96418.69;;;10.63;77.67
44131;BME280;29792;48.726;9.248;2022-12-29T04:26:46;96417.63;;;10.65;77.95
44131;BME280;29792;48.726;9.248;2022-12-29T04:29:11;96423.53;;;10.66;78.19
44131;BME280;29792;48.726;9.248;2022-12-29T04:31:37;96426.25;;;10.64;78.37
44131;BME280;29792;48.726;9.248;2022-12-29T04:34:02;96427.72;;;10.67;79.02
44131;BME280;29792;48.726;9.248;2022-12-29T04:36:27;96427.59;;;10.68;78.52
44131;BME280;29792;48.726;9.248;2022-12-29T04:38:52;96435.28;;;10.68;79.05
44131;BME280;29792;48.726;9.248;2022-12-29T04:41:18;96424.09;;;10.69;79.28
44131;BME280;29792;48.726;9.248;2022-12-29T04:43:43;96411.94;;;10.71;78.93
44131;BME280;29792;48.726;9.248;2022-12-29T04:46:08;96412.47;;;10.75;79.57
44131;BME280;29792;48.726;9.248;2022-12-29T04:48:34;96421.47;;;10.79;79.15
44131;BME280;29792;48.726;9.248;2022-12-29T04:50:59;96412.22;;;10.78;79.62
44131;BME280;29792;48.726;9.248;2022-12-29T04:53:24;96416.53;;;10.78;78.79
44131;BME280;29792;48.726;9.248;2022-12-29T04:55:51;96415.03;;;10.75;78.85
44131;BME280;29792;48.726;9.248;2022-12-29T04:58:17;96427.03;;;10.75;79.38
44131;BME280;29792;48.726;9.248;2022-12-29T05:00:42;96420.44;;;10.72;79.55
44131;BME280;29792;48.726;9.248;2022-12-29T05:03:07;96429.88;;;10.71;79.01
44131;BME280;29792;48.726;9.248;2022-12-29T05:05:33;96426.34;;;10.73;79.55
44131;BME280;29792;48.726;9.248;2022-12-29T05:07:58;96420.72;;;10.69;79.47
44131;BME280;29792;48.726;9.248;2022-12-29T05:10:23;96426.78;;;10.68;79.06
44131;BME280;29792;48.726;9.248;2022-12-29T05:12:48;96430.16;;;10.68;78.94
44131;BME280;29792;48.726;9.248;2022-12-29T05:15:13;96427.84;;;10.65;78.86
44131;BME280;29792;48.726;9.248;2022-12-29T05:17:39;96429.09;;;10.61;79.46
44131;BME280;29792;48.726;9.248;2022-12-29T05:20:05;96423.28;;;10.59;79.73
44131;BME280;29792;48.726;9.248;2022-12-29T05:22:31;96428.28;;;10.61;79.36
44131;BME280;29792;48.726;9.248;2022-12-29T05:24:56;96419.66;;;10.62;79.45
44131;BME280;29792;48.726;9.248;2022-12-29T05:27:21;96423.97;;;10.61;79.45
44131;BME280;29792;48.726;9.248;2022-12-29T05:29:46;96418.56;;;10.64;79.09
44131;BME280;29792;48.726;9.248;2022-12-29T05:32:12;96413.31;;;10.66;79.08
44131;BME280;29792;48.726;9.248;2022-12-29T05:34:37;96413.56;;;10.63;79.15
44131;BME280;29792;48.726;9.248;2022-12-29T05:37:02;96411.44;;;10.58;79.15
44131;BME280;29792;48.726;9.248;2022-12-29T05:39:28;96414.13;;;10.57;79.63
44131;BME280;29792;48.726;9.248;2022-12-29T05:41:53;96428.41;;;10.59;79.86
44131;BME280;29792;48.726;9.248;2022-12-29T05:44:19;96428.13;;;10.62;79.86
44131;BME280;29792;48.726;9.248;2022-12-29T05:46:44;96436.47;;;10.64;79.42
44131;BME280;29792;48.726;9.248;2022-12-29T05:49:09;96423.41;;;10.67;79.52
44131;BME280;29792;48.726;9.248;2022-12-29T05:51:34;96422.47;;;10.68;79.54
44131;BME280;29792;48.726;9.248;2022-12-29T05:54:00;96411.53;;;10.66;79.37
44131;BME280;29792;48.726;9.248;2022-12-29T05:56:25;96414.13;;;10.66;79.18
44131;BME280;29792;48.726;9.248;2022-12-29T05:58:50;96411.41;;;10.68;79.23
44131;BME280;29792;48.726;9.248;2022-12-29T06:01:15;96413.31;;;10.66;79.21
44131;BME280;29792;48.726;9.248;2022-12-29T06:03:41;96418.41;;;10.66;78.95
44131;BME280;29792;48.726;9.248;2022-12-29T06:06:06;96413.84;;;10.69;78.90
44131;BME280;29792;48.726;9.248;2022-12-29T06:08:32;96412.59;;;10.74;79.06
44131;BME280;29792;48.726;9.248;2022-12-29T06:10:57;96413.00;;;10.79;78.05
44131;BME280;29792;48.726;9.248;2022-12-29T06:13:22;96398.03;;;10.84;78.25
44131;BME280;29792;48.726;9.248;2022-12-29T06:15:48;96395.16;;;10.87;77.84
44131;BME280;29792;48.726;9.248;2022-12-29T06:18:14;96397.09;;;10.85;77.43
44131;BME280;29792;48.726;9.248;2022-12-29T06:20:39;96395.47;;;10.84;77.31
44131;BME280;29792;48.726;9.248;2022-12-29T06:23:04;96383.47;;;10.84;77.53
44131;BME280;29792;48.726;9.248;2022-12-29T06:25:30;96376.72;;;10.83;77.11
44131;BME280;29792;48.726;9.248;2022-12-29T06:27:57;96386.44;;;10.80;77.17
44131;BME280;29792;48.726;9.248;2022-12-29T06:30:22;96395.34;;;10.76;77.28
44131;BME280;29792;48.726;9.248;2022-12-29T06:32:47;96399.41;;;10.68;77.49
44131;BME280;29792;48.726;9.248;2022-12-29T06:35:13;96399.94;;;10.62;77.53
44131;BME280;29792;48.726;9.248;2022-12-29T06:37:38;96398.50;;;10.60;76.93
44131;BME280;29792;48.726;9.248;2022-12-29T06:40:04;96404.69;;;10.57;77.22
44131;BME280;29792;48.726;9.248;2022-12-29T06:42:30;96404.19;;;10.54;77.27
44131;BME280;29792;48.726;9.248;2022-12-29T06:44:55;96414.53;;;10.52;77.44
44131;BME280;29792;48.726;9.248;2022-12-29T06:47:23;96403.63;;;10.50;77.47
44131;BME280;29792;48.726;9.248;2022-12-29T06:49:48;96408.75;;;10.50;77.45
44131;BME280;29792;48.726;9.248;2022-12-29T06:52:14;96415.63;;;10.50;77.49
44131;BME280;29792;48.726;9.248;2022-12-29T06:54:39;96405.38;;;10.50;77.52
44131;BME280;29792;48.726;9.248;2022-12-29T06:57:04;96400.94;;;10.52;77.48
44131;BME280;29792;48.726;9.248;2022-12-29T06:59:29;96402.38;;;10.54;77.67
44131;BME280;29792;48.726;9.248;2022-12-29T07:01:55;96387.19;;;10.53;77.52
44131;BME280;29792;48.726;9.248;2022-12-29T07:04:20;96388.41;;;10.49;77.40
44131;BME280;29792;48.726;9.248;2022-12-29T07:06:45;96396.22;;;10.47;77.29
44131;BME280;29792;48.726;9.248;2022-12-29T07:09:10;96398.13;;;10.45;77.57
44131;BME280;29792;48.726;9.248;2022-12-29T07:11:36;96404.84;;;10.46;77.65
44131;BME280;29792;48.726;9.248;2022-12-29T07:14:02;96409.00;;;10.47;78.12
44131;BME280;29792;48.726;9.248;2022-12-29T07:16:27;96395.25;;;10.48;78.47
44131;BME280;29792;48.726;9.248;2022-12-29T07:18:55;96393.66;;;10.47;77.88
44131;BME280;29792;48.726;9.248;2022-12-29T07:21:20;96397.16;;;10.46;78.39
44131;BME280;29792;48.726;9.248;2022-12-29T07:23:45;96395.56;;;10.45;78.50
44131;BME280;29792;48.726;9.248;2022-12-29T07:26:12;96390.28;;;10.47;78.31
44131;BME280;29792;48.726;9.248;2022-12-29T07:28:38;96390.44;;;10.45;78.64
44131;BME280;29792;48.726;9.248;2022-12-29T07:31:04;96399.56;;;10.48;79.10
44131;BME280;29792;48.726;9.248;2022-12-29T07:33:30;96397.69;;;10.50;78.89
44131;BME280;29792;48.726;9.248;2022-12-29T07:35:57;96399.31;;;10.51;79.01
44131;BME280;29792;48.726;9.248;2022-12-29T07:38:23;96400.13;;;10.51;79.08
44131;BME280;29792;48.726;9.248;2022-12-29T07:40:48;96408.31;;;10.55;79.22
44131;BME280;29792;48.726;9.248;2022-12-29T07:43:13;96404.44;;;10.60;78.88
44131;BME280;29792;48.726;9.248;2022-12-29T07:45:38;96412.50;;;10.65;78.62
44131;BME280;29792;48.726;9.248;2022-12-29T07:48:04;96409.78;;;10.67;79.18
44131;BME280;29792;48.726;9.248;2022-12-29T07:50:33;96409.66;;;10.68;79.03
44131;BME280;29792;48.726;9.248;2022-12-29T07:52:58;96405.19;;;10.70;79.25
44131;BME280;29792;48.726;9.248;2022-12-29T07:55:23;96411.13;;;10.71;79.20
44131;BME280;29792;48.726;9.248;2022-12-29T07:57:49;96418.53;;;10.74;79.00
44131;BME280;29792;48.726;9.248;2022-12-29T08:00:14;96417.72;;;10.74;78.82
44131;BME280;29792;48.726;9.248;2022-12-29T08:02:39;96417.59;;;10.75;78.82
44131;BME280;29792;48.726;9.248;2022-12-29T08:05:05;96409.78;;;10.77;79.75
44131;BME280;29792;48.726;9.248;2022-12-29T08:07:30;96413.00;;;10.79;79.18
44131;BME280;29792;48.726;9.248;2022-12-29T08:09:56;96418.53;;;10.84;79.57
44131;BME280;29792;48.726;9.248;2022-12-29T08:12:21;96416.47;;;10.87;78.96
44131;BME280;29792;48.726;9.248;2022-12-29T08:14:46;96420.25;;;10.93;79.10
44131;BME280;29792;48.726;9.248;2022-12-29T08:17:11;96429.81;;;11.00;79.11
44131;BME280;29792;48.726;9.248;2022-12-29T08:19:37;96425.19;;;11.04;78.91
44131;BME280;29792;48.726;9.248;2022-12-29T08:22:03;96427.47;;;11.07;79.07
44131;BME280;29792;48.726;9.248;2022-12-29T08:24:28;96432.34;;;11.10;79.14
44131;BME280;29792;48.726;9.248;2022-12-29T08:26:54;96433.78;;;11.13;79.55
44131;BME280;29792;48.726;9.248;2022-12-29T08:29:20;96439.59;;;11.15;79.27
44131;BME280;29792;48.726;9.248;2022-12-29T08:31:46;96438.09;;;11.22;78.89
44131;BME280;29792;48.726;9.248;2022-12-29T08:34:12;96439.44;;;11.26;78.68
44131;BME280;29792;48.726;9.248;2022-12-29T08:36:37;96446.69;;;11.30;78.28
44131;BME280;29792;48.726;9.248;2022-12-29T08:39:03;96435.06;;;11.36;78.29
44131;BME280;29792;48.726;9.248;2022-12-29T08:41:29;96425.34;;;11.39;78.05
44131;BME280;29792;48.726;9.248;2022-12-29T08:43:54;96426.00;;;11.41;77.78
44131;BME280;29792;48.726;9.248;2022-12-29T08:46:19;96425.56;;;11.46;77.72
44131;BME280;29792;48.726;9.248;2022-12-29T08:48:44;96431.38;;;11.48;77.69
44131;BME280;29792;48.726;9.248;2022-12-29T08:51:10;96417.47;;;11.51;77.53
44131;BME280;29792;48.726;9.248;2022-12-29T08:53:35;96419.72;;;11.54;76.76
44131;BME280;29792;48.726;9.248;2022-12-29T08:56:01;96416.75;;;11.58;76.50
44131;BME280;29792;48.726;9.248;2022-12-29T08:58:27;96417.25;;;11.62;76.07
44131;BME280;29792;48.726;9.248;2022-12-29T09:00:56;96419.53;;;11.65;75.81
44131;BME280;29792;48.726;9.248;2022-12-29T09:03:22;96420.47;;;11.64;75.35
44131;BME280;29792;48.726;9.248;2022-12-29T09:05:49;96436.81;;;11.63;75.73
44131;BME280;29792;48.726;9.248;2022-12-29T09:08:14;96425.59;;;11.64;74.77
44131;BME280;29792;48.726;9.248;2022-12-29T09:10:40;96441.00;;;11.64;74.85
44131;BME280;29792;48.726;9.248;2022-12-29T09:13:05;96441.13;;;11.62;75.23
44131;BME280;29792;48.726;9.248;2022-12-29T09:15:30;96439.81;;;11.58;75.29
44131;BME280;29792;48.726;9.248;2022-12-29T09:17:56;96450.09;;;11.58;74.23
44131;BME280;29792;48.726;9.248;2022-12-29T09:20:21;96447.75;;;11.65;74.34
44131;BME280;29792;48.726;9.248;2022-12-29T09:22:47;96447.97;;;11.71;74.35
44131;BME280;29792;48.726;9.248;2022-12-29T09:25:13;96459.44;;;11.77;74.67
44131;BME280;29792;48.726;9.248;2022-12-29T09:27:38;96460.78;;;11.81;74.18
44131;BME280;29792;48.726;9.248;2022-12-29T09:30:05;96456.03;;;11.86;74.11
44131;BME280;29792;48.726;9.248;2022-12-29T09:32:32;96459.25;;;11.88;74.51
44131;BME280;29792;48.726;9.248;2022-12-29T09:34:57;96452.22;;;11.90;74.01
44131;BME280;29792;48.726;9.248;2022-12-29T09:37:23;96470.56;;;11.95;73.56
44131;BME280;29792;48.726;9.248;2022-12-29T09:39:48;96468.53;;;11.99;74.21
44131;BME280;29792;48.726;9.248;2022-12-29T09:42:41;96463.22;;;12.00;73.53
44131;BME280;29792;48.726;9.248;2022-12-29T09:45:10;96470.50;;;12.05;73.24
44131;BME280;29792;48.726;9.248;2022-12-29T09:47:38;96475.72;;;12.13;73.10
44131;BME280;29792;48.726;9.248;2022-12-29T09:50:19;96467.44;;;12.19;73.26
44131;BME280;29792;48.726;9.248;2022-12-29T09:53:01;96462.00;;;12.22;73.94
44131;BME280;29792;48.726;9.248;2022-12-29T09:55:39;96458.31;;;12.24;73.05
44131;BME280;29792;48.726;9.248;2022-12-29T09:58:13;96461.56;;;12.27;73.19
44131;BME280;29792;48.726;9.248;2022-12-29T10:03:40;96445.41;;;12.34;73.06
44131;BME280;29792;48.726;9.248;2022-12-29T10:09:12;96469.13;;;12.46;73.11
44131;BME280;29792;48.726;9.248;2022-12-29T10:14:37;96464.66;;;12.48;73.14
44131;BME280;29792;48.726;9.248;2022-12-29T10:20:22;96461.69;;;12.43;73.69
44131;BME280;29792;48.726;9.248;2022-12-29T10:23:19;96471.63;;;12.38;73.56
44131;BME280;29792;48.726;9.248;2022-12-29T10:25:47;96471.63;;;12.38;74.10
44131;BME280;29792;48.726;9.248;2022-12-29T10:28:22;96471.31;;;12.41;74.40
44131;BME280;29792;48.726;9.248;2022-12-29T10:30:49;96467.78;;;12.42;74.22
44131;BME280;29792;48.726;9.248;2022-12-29T10:33:26;96464.00;;;12.46;74.32
44131;BME280;29792;48.726;9.248;2022-12-29T10:35:55;96465.28;;;12.50;74.06
44131;BME280;29792;48.726;9.248;2022-12-29T10:41:03;96469.53;;;12.59;74.63
44131;BME280;29792;48.726;9.248;2022-12-29T10:43:43;96458.84;;;12.64;75.10
44131;BME280;29792;48.726;9.248;2022-12-29T10:46:13;96458.22;;;12.70;75.58
44131;BME280;29792;48.726;9.248;2022-12-29T10:48:39;96456.59;;;13.46;76.82
44131;BME280;29792;48.726;9.248;2022-12-29T10:51:05;96451.72;;;14.43;73.43
44131;BME280;29792;48.726;9.248;2022-12-29T10:53:41;96450.84;;;15.32;69.72
44131;BME280;29792;48.726;9.248;2022-12-29T10:56:33;96453.84;;;15.44;65.19
44131;BME280;29792;48.726;9.248;2022-12-29T10:59:04;96450.28;;;14.89;63.68
44131;BME280;29792;48.726;9.248;2022-12-29T11:01:38;96461.03;;;14.36;63.91
44131;BME280;29792;48.726;9.248;2022-12-29T11:04:18;96464.19;;;13.98;65.39
44131;BME280;29792;48.726;9.248;2022-12-29T11:06:48;96458.00;;;13.66;66.54
44131;BME280;29792;48.726;9.248;2022-12-29T11:09:24;96473.84;;;13.46;68.16
44131;BME280;29792;48.726;9.248;2022-12-29T11:11:49;96466.66;;;13.31;69.06
44131;BME280;29792;48.726;9.248;2022-12-29T11:14:20;96458.44;;;13.20;69.50
44131;BME280;29792;48.726;9.248;2022-12-29T11:16:57;96465.78;;;13.15;70.34
44131;BME280;29792;48.726;9.248;2022-12-29T11:19:25;96461.38;;;13.07;70.03
44131;BME280;29792;48.726;9.248;2022-12-29T11:21:51;96468.06;;;13.00;70.89
44131;BME280;29792;48.726;9.248;2022-12-29T11:24:26;96464.69;;;12.99;71.82
44131;BME280;29792;48.726;9.248;2022-12-29T11:27:08;96468.06;;;13.00;71.40
44131;BME280;29792;48.726;9.248;2022-12-29T11:29:40;96468.53;;;12.95;71.61
44131;BME280;29792;48.726;9.248;2022-12-29T11:32:20;96467.34;;;12.90;72.24
44131;BME280;29792;48.726;9.248;2022-12-29T11:34:46;96473.09;;;12.84;72.50
44131;BME280;29792;48.726;9.248;2022-12-29T11:37:18;96481.56;;;12.76;72.70
44131;BME280;29792;48.726;9.248;2022-12-29T11:39:57;96480.25;;;12.72;73.03
44131;BME280;29792;48.726;9.248;2022-12-29T11:42:36;96474.75;;;12.67;73.30
44131;BME280;29792;48.726;9.248;2022-12-29T11:45:05;96470.06;;;12.63;74.01
44131;BME280;29792;48.726;9.248;2022-12-29T11:47:32;96465.75;;;12.63;75.24
44131;BME280;29792;48.726;9.248;2022-12-29T11:50:00;96460.28;;;12.66;75.65
44131;BME280;29792;48.726;9.248;2022-12-29T11:52:29;96459.84;;;12.71;75.73
44131;BME280;29792;48.726;9.248;2022-12-29T11:54:58;96470.63;;;12.74;74.90
44131;BME280;29792;48.726;9.248;2022-12-29T11:57:26;96471.94;;;12.78;75.50
44131;BME280;29792;48.726;9.248;2022-12-29T11:59:54;96464.72;;;12.82;74.46
44131;BME280;29792;48.726;9.248;2022-12-29T12:05:16;96470.03;;;12.80;74.39
44131;BME280;29792;48.726;9.248;2022-12-29T12:07:46;96465.19;;;12.77;75.57
44131;BME280;29792;48.726;9.248;2022-12-29T12:10:46;96459.72;;;12.72;75.67
44131;BME280;29792;48.726;9.248;2022-12-29T12:13:29;96457.44;;;12.69;76.77
44131;BME280;29792;48.726;9.248;2022-12-29T12:16:15;96453.19;;;12.60;77.26
44131;BME280;29792;48.726;9.248;2022-12-29T12:19:02;96457.97;;;12.55;77.51
44131;BME280;29792;48.726;9.248;2022-12-29T12:21:38;96462.72;;;12.50;77.61
44131;BME280;29792;48.726;9.248;2022-12-29T12:26:37;96455.97;;;12.49;78.78
44131;BME280;29792;48.726;9.248;2022-12-29T12:29:11;96466.09;;;12.50;79.36
44131;BME280;29792;48.726;9.248;2022-12-29T12:32:01;96465.28;;;12.50;79.29
44131;BME280;29792;48.726;9.248;2022-12-29T12:34:35;96464.34;;;12.51;79.48
44131;BME280;29792;48.726;9.248;2022-12-29T12:37:15;96463.38;;;12.52;80.06
44131;BME280;29792;48.726;9.248;2022-12-29T12:42:48;96469.72;;;12.40;82.98
44131;BME280;29792;48.726;9.248;2022-12-29T12:51:36;96450.09;;;12.03;88.23
44131;BME280;29792;48.726;9.248;2022-12-29T12:54:35;96450.69;;;11.97;89.40
44131;BME280;29792;48.726;9.248;2022-12-29T12:57:13;96447.19;;;11.98;91.22
44131;BME280;29792;48.726;9.248;2022-12-29T12:59:56;96445.78;;;12.04;91.77
44131;BME280;29792;48.726;9.248;2022-12-29T13:02:37;96443.97;;;12.14;92.93
44131;BME280;29792;48.726;9.248;2022-12-29T13:05:46;96434.63;;;12.13;91.04
44131;BME280;29792;48.726;9.248;2022-12-29T13:11:20;96434.03;;;12.19;90.55
44131;BME280;29792;48.726;9.248;2022-12-29T13:14:20;96441.16;;;12.25;91.30
44131;BME280;29792;48.726;9.248;2022-12-29T13:20:39;96431.53;;;12.45;89.83
44131;BME280;29792;48.726;9.248;2022-12-29T13:22:57;96441.88;;;12.53;88.69
44131;BME280;29792;48.726;9.248;2022-12-29T13:25:47;96439.16;;;12.72;89.45
44131;BME280;29792;48.726;9.248;2022-12-29T13:31:27;96442.38;;;13.00;83.60
44131;BME280;29792;48.726;9.248;2022-12-29T13:34:14;96442.13;;;12.85;83.31
44131;BME280;29792;48.726;9.248;2022-12-29T13:36:45;96441.34;;;12.67;83.83
44131;BME280;29792;48.726;9.248;2022-12-29T13:39:23;96430.00;;;12.52;84.25
44131;BME280;29792;48.726;9.248;2022-12-29T13:41:56;96438.44;;;12.44;84.99
44131;BME280;29792;48.726;9.248;2022-12-29T13:44:38;96443.22;;;12.39;85.58
44131;BME280;29792;48.726;9.248;2022-12-29T13:47:20;96433.38;;;12.35;85.71
44131;BME280;29792;48.726;9.248;2022-12-29T13:49:47;96428.38;;;12.33;86.85
44131;BME280;29792;48.726;9.248;2022-12-29T13:52:36;96433.38;;;12.35;87.20
44131;BME280;29792;48.726;9.248;2022-12-29T13:58:12;96426.28;;;12.29;87.40
44131;BME280;29792;48.726;9.248;2022-12-29T14:00:53;96429.13;;;12.26;87.50
44131;BME280;29792;48.726;9.248;2022-12-29T14:03:41;96425.75;;;12.25;87.47
44131;BME280;29792;48.726;9.248;2022-12-29T14:06:19;96437.78;;;12.24;87.28
44131;BME280;29792;48.726;9.248;2022-12-29T14:08:46;96421.41;;;12.26;87.42
44131;BME280;29792;48.726;9.248;2022-12-29T14:11:14;96421.13;;;12.29;88.05
44131;BME280;29792;48.726;9.248;2022-12-29T14:13:42;96419.22;;;12.31;88.14
44131;BME280;29792;48.726;9.248;2022-12-29T14:16:24;96415.84;;;12.30;88.21
44131;BME280;29792;48.726;9.248;2022-12-29T14:18:50;96408.97;;;12.31;87.86
44131;BME280;29792;48.726;9.248;2022-12-29T14:23:49;96426.56;;;12.26;87.64
44131;BME280;29792;48.726;9.248;2022-12-29T14:29:16;96428.09;;;12.18;88.70
44131;BME280;29792;48.726;9.248;2022-12-29T14:31:41;96425.91;;;12.23;88.63